createdAt,value
2016-11-23T00:00:38.797Z,99.99
2016-11-23T00:02:38.834Z,99.99
2016-11-23T00:03:38.888Z,99.99
2016-11-23T00:04:38.876Z,99.99
2016-11-23T00:05:38.924Z,99.99
2016-11-23T00:06:38.916Z,99.99
2016-11-23T00:07:38.934Z,99.99
2016-11-23T00:08:38.959Z,99.99
2016-11-23T00:09:53.889Z,99.99
2016-11-23T00:10:38.994Z,99.99
2016-11-23T00:11:39.021Z,99.99
2016-11-23T00:12:39.037Z,99.99
2016-11-23T00:13:39.058Z,99.99
2016-11-23T00:14:39.079Z,99.99
2016-11-23T00:17:39.133Z,99.99
2016-11-23T00:18:39.156Z,99.99
2016-11-23T00:19:39.179Z,99.99
2016-11-23T00:20:39.198Z,99.99
2016-11-23T00:21:39.217Z,99.99
2016-11-23T00:22:39.239Z,99.99
2016-11-23T00:23:39.255Z,99.99
2016-11-23T00:24:39.273Z,99.99
2016-11-23T00:25:54.207Z,99.99
2016-11-23T00:26:39.313Z,99.99
2016-11-23T00:27:39.347Z,99.99
2016-11-23T00:28:39.356Z,99.99
2016-11-23T00:29:39.379Z,99.99
2016-11-23T00:30:39.392Z,99.99
2016-11-23T00:31:39.418Z,99.99
2016-11-23T00:32:39.437Z,99.99
2016-11-23T00:33:39.451Z,99.99
2016-11-23T00:34:39.471Z,99.99
2016-11-23T00:35:39.499Z,99.99
2016-11-23T00:36:39.516Z,99.99
2016-11-23T00:37:39.531Z,99.99
2016-11-23T00:38:39.555Z,99.99
2016-11-23T00:39:39.572Z,99.99
2016-11-23T00:40:39.597Z,99.99
2016-11-23T00:41:54.524Z,99.99
2016-11-23T00:42:39.633Z,99.99
2016-11-23T00:43:39.652Z,99.99
2016-11-23T00:44:39.669Z,99.99
2016-11-23T00:46:39.711Z,99.99
2016-11-23T00:47:39.735Z,99.99
2016-11-23T00:48:39.752Z,99.99
2016-11-23T00:49:39.772Z,99.99
2016-11-23T00:50:39.789Z,99.99
2016-11-23T00:51:39.811Z,99.99
2016-11-23T00:52:39.826Z,99.99
2016-11-23T00:53:39.847Z,99.99
2016-11-23T00:54:39.867Z,99.99
2016-11-23T00:55:39.893Z,99.99
2016-11-23T00:56:39.913Z,99.99
2016-11-23T00:57:54.840Z,99.99
2016-11-23T00:58:39.948Z,99.99
2016-11-23T00:59:39.973Z,99.99
2016-11-23T01:00:39.990Z,99.99
2016-11-23T01:01:40.011Z,99.99
2016-11-23T01:02:40.026Z,99.99
2016-11-23T01:06:40.109Z,99.99
2016-11-23T01:07:40.130Z,99.99
2016-11-23T01:08:40.146Z,99.99
2016-11-23T01:09:40.164Z,99.99
2016-11-23T01:10:40.185Z,99.99
2016-11-23T01:11:40.208Z,99.99
2016-11-23T01:12:55.138Z,99.99
2016-11-23T01:13:40.243Z,99.99
2016-11-23T01:14:40.270Z,99.99
2016-11-23T01:15:40.282Z,99.99
2016-11-23T01:16:40.306Z,99.99
2016-11-23T01:17:40.326Z,99.99
2016-11-23T01:19:40.370Z,99.99
2016-11-23T01:20:40.380Z,99.99
2016-11-23T01:21:40.402Z,99.99
2016-11-23T01:22:40.423Z,99.99
2016-11-23T01:23:40.440Z,99.99
2016-11-23T01:24:40.764Z,99.99
2016-11-23T01:25:40.477Z,99.99
2016-11-23T01:26:40.497Z,99.99
2016-11-23T01:27:40.515Z,99.99
2016-11-23T01:28:40.544Z,99.99
2016-11-23T01:29:40.867Z,99.99
2016-11-23T01:30:40.573Z,99.99
2016-11-23T01:31:40.597Z,99.99
2016-11-23T01:32:40.612Z,99.99
2016-11-23T01:34:40.655Z,99.99
2016-11-23T01:35:40.675Z,99.99
2016-11-23T01:36:40.690Z,99.99
2016-11-23T01:37:40.711Z,99.99
2016-11-23T01:38:40.729Z,99.99
2016-11-23T01:39:40.746Z,99.99
2016-11-23T01:40:40.769Z,99.99
2016-11-23T01:41:40.788Z,99.99
2016-11-23T01:42:40.811Z,99.99
2016-11-23T01:43:40.823Z,99.99
2016-11-23T01:44:55.759Z,99.99
2016-11-23T01:45:40.867Z,99.99
2016-11-23T01:46:40.889Z,99.99
2016-11-23T01:47:40.906Z,99.99
2016-11-23T01:48:40.928Z,99.99
2016-11-23T01:49:40.946Z,99.99
2016-11-23T01:50:40.965Z,99.99
2016-11-23T01:51:40.980Z,99.99
2016-11-23T01:52:40.999Z,99.99
2016-11-23T01:53:41.021Z,99.99
2016-11-23T01:54:41.039Z,99.99
2016-11-23T01:55:41.057Z,99.99
2016-11-23T01:56:41.078Z,99.99
2016-11-23T01:57:41.128Z,99.99
2016-11-23T01:58:41.112Z,99.99
2016-11-23T01:59:41.138Z,99.99
2016-11-23T02:00:56.066Z,99.99
2016-11-23T02:02:41.190Z,99.99
2016-11-23T02:03:41.213Z,99.99
2016-11-23T02:04:41.231Z,99.99
2016-11-23T02:05:41.249Z,99.99
2016-11-23T02:06:41.270Z,99.99
2016-11-23T02:07:41.287Z,99.99
2016-11-23T02:08:41.304Z,99.99
2016-11-23T02:09:41.321Z,99.99
2016-11-23T02:10:41.345Z,99.99
2016-11-23T02:11:41.370Z,99.99
2016-11-23T02:12:41.386Z,99.99
2016-11-23T02:13:41.398Z,99.99
2016-11-23T02:14:41.422Z,99.99
2016-11-23T02:16:56.371Z,99.99
2016-11-23T02:17:41.476Z,99.99
2016-11-23T02:18:41.496Z,99.99
2016-11-23T02:19:41.514Z,99.99
2016-11-23T02:20:41.534Z,99.99
2016-11-23T02:21:41.551Z,99.99
2016-11-23T02:22:41.579Z,99.99
2016-11-23T02:23:41.623Z,99.99
2016-11-23T02:24:41.608Z,99.99
2016-11-23T02:25:41.630Z,99.99
2016-11-23T02:26:41.647Z,99.99
2016-11-23T02:27:41.667Z,99.99
2016-11-23T02:28:41.686Z,99.99
2016-11-23T02:29:41.705Z,99.99
2016-11-23T02:30:41.728Z,99.99
2016-11-23T02:31:41.746Z,99.99
2016-11-23T02:32:56.675Z,99.99
2016-11-23T02:33:41.782Z,99.99
2016-11-23T02:34:41.806Z,99.99
2016-11-23T02:35:41.820Z,99.99
2016-11-23T02:36:41.842Z,99.99
2016-11-23T02:38:41.878Z,99.99
2016-11-23T02:39:41.897Z,99.99
2016-11-23T02:40:41.921Z,99.99
2016-11-23T02:41:41.941Z,99.99
2016-11-23T02:42:41.955Z,99.99
2016-11-23T02:43:41.979Z,99.99
2016-11-23T02:44:41.994Z,99.99
2016-11-23T02:45:42.012Z,99.99
2016-11-23T02:46:42.031Z,99.99
2016-11-23T02:47:56.966Z,99.99
2016-11-23T02:48:42.073Z,99.99
2016-11-23T02:50:42.110Z,99.99
2016-11-23T02:51:42.128Z,99.99
2016-11-23T02:52:42.173Z,99.99
2016-11-23T02:53:42.170Z,99.99
2016-11-23T02:55:42.210Z,99.99
2016-11-23T02:56:42.222Z,99.99
2016-11-23T02:57:42.245Z,99.99
2016-11-23T02:58:42.263Z,99.99
2016-11-23T02:59:42.286Z,99.99
2016-11-23T03:00:42.298Z,99.99
2016-11-23T03:01:42.317Z,99.99
2016-11-23T03:02:42.343Z,99.99
2016-11-23T03:03:42.360Z,99.99
2016-11-23T03:04:42.378Z,99.99
2016-11-23T03:05:42.420Z,99.99
2016-11-23T03:06:42.417Z,99.99
2016-11-23T03:07:42.431Z,99.99
2016-11-23T03:08:42.452Z,99.99
2016-11-23T03:09:42.474Z,99.99
2016-11-23T03:10:42.498Z,99.99
2016-11-23T03:11:42.510Z,99.99
2016-11-23T03:12:42.532Z,99.99
2016-11-23T03:13:42.551Z,99.99
2016-11-23T03:14:42.569Z,99.99
2016-11-23T03:15:42.586Z,99.99
2016-11-23T03:16:42.605Z,99.99
2016-11-23T03:17:42.623Z,99.99
2016-11-23T03:18:42.648Z,99.99
2016-11-23T03:19:57.573Z,99.99
2016-11-23T03:20:42.678Z,99.99
2016-11-23T03:21:42.703Z,99.99
2016-11-23T03:22:42.716Z,99.99
2016-11-23T03:23:42.734Z,99.99
2016-11-23T03:24:42.755Z,99.99
2016-11-23T03:26:42.792Z,99.99
2016-11-23T03:27:42.818Z,99.99
2016-11-23T03:28:42.831Z,99.99
2016-11-23T03:29:42.849Z,99.99
2016-11-23T03:30:42.865Z,99.99
2016-11-23T03:31:42.892Z,99.99
2016-11-23T03:32:42.908Z,99.99
2016-11-23T03:33:42.927Z,99.99
2016-11-23T03:34:42.946Z,99.99
2016-11-23T03:35:57.873Z,99.99
2016-11-23T03:36:42.981Z,99.99
2016-11-23T03:37:43.002Z,99.99
2016-11-23T03:38:43.022Z,99.99
2016-11-23T03:39:43.036Z,99.99
2016-11-23T03:40:43.054Z,99.99
2016-11-23T03:41:43.078Z,99.99
2016-11-23T03:42:43.098Z,99.99
2016-11-23T03:43:43.110Z,99.99
2016-11-23T03:44:43.131Z,99.99
2016-11-23T03:45:43.147Z,99.99
2016-11-23T03:46:43.165Z,99.99
2016-11-23T03:47:43.185Z,99.99
2016-11-23T03:48:43.206Z,99.99
2016-11-23T03:49:43.222Z,99.99
2016-11-23T03:50:43.247Z,99.99
2016-11-23T03:51:58.174Z,99.99
2016-11-23T03:52:43.282Z,99.99
2016-11-23T03:54:43.319Z,99.99
2016-11-23T03:55:43.335Z,99.99
2016-11-23T03:56:43.354Z,99.99
2016-11-23T03:57:43.375Z,99.99
2016-11-23T03:58:43.390Z,99.99
2016-11-23T03:59:43.411Z,99.99
2016-11-23T04:00:43.432Z,99.99
2016-11-23T04:01:43.449Z,99.99
2016-11-23T04:02:43.500Z,99.99
2016-11-23T04:03:43.489Z,99.99
2016-11-23T04:04:43.501Z,99.99
2016-11-23T04:05:43.522Z,99.99
2016-11-23T04:06:43.547Z,99.99
2016-11-23T04:07:58.471Z,99.99
2016-11-23T04:08:43.582Z,99.99
2016-11-23T04:09:43.598Z,99.99
2016-11-23T04:10:43.616Z,99.99
2016-11-23T04:11:43.634Z,99.99
2016-11-23T04:12:43.660Z,99.99
2016-11-23T04:13:43.671Z,99.99
2016-11-23T04:15:43.718Z,99.99
2016-11-23T04:16:43.727Z,99.99
2016-11-23T04:17:43.750Z,99.99
2016-11-23T04:18:43.770Z,99.99
2016-11-23T04:19:43.791Z,99.99
2016-11-23T04:20:43.803Z,99.99
2016-11-23T04:21:43.824Z,99.99
2016-11-23T04:22:58.752Z,99.99
2016-11-23T04:23:43.859Z,99.99
2016-11-23T04:25:43.902Z,99.99
2016-11-23T04:26:43.916Z,99.99
2016-11-23T04:27:43.935Z,99.99
2016-11-23T04:28:43.950Z,99.99
2016-11-23T04:29:43.975Z,99.99
2016-11-23T04:30:43.994Z,99.99
2016-11-23T04:31:44.012Z,99.99
2016-11-23T04:32:44.026Z,99.99
2016-11-23T04:33:44.044Z,99.99
2016-11-23T04:34:44.069Z,99.99
2016-11-23T04:35:44.084Z,99.99
2016-11-23T04:36:44.102Z,99.99
2016-11-23T04:37:44.118Z,99.99
2016-11-23T04:38:44.142Z,99.99
2016-11-23T04:39:44.158Z,99.99
2016-11-23T04:40:44.177Z,99.99
2016-11-23T04:41:44.197Z,99.99
2016-11-23T04:42:44.215Z,99.99
2016-11-23T04:43:44.229Z,99.99
2016-11-23T04:45:44.272Z,99.99
2016-11-23T04:46:44.289Z,99.99
2016-11-23T04:47:44.304Z,99.99
2016-11-23T04:48:44.326Z,99.99
2016-11-23T04:49:44.348Z,99.99
2016-11-23T04:50:44.367Z,99.99
2016-11-23T04:51:44.379Z,99.99
2016-11-23T04:52:44.406Z,99.99
2016-11-23T04:53:44.422Z,99.99
2016-11-23T04:54:59.348Z,99.99
2016-11-23T04:55:44.459Z,99.99
2016-11-23T04:56:44.481Z,99.99
2016-11-23T04:57:44.490Z,99.99
2016-11-23T04:58:44.515Z,99.99
2016-11-23T04:59:44.527Z,99.99
2016-11-23T05:00:44.551Z,99.99
2016-11-23T05:01:44.569Z,99.99
2016-11-23T05:02:44.589Z,99.99
2016-11-23T05:03:44.606Z,99.99
2016-11-23T05:04:44.626Z,99.99
2016-11-23T05:05:44.649Z,99.99
2016-11-23T05:06:44.857Z,99.99
2016-11-23T05:07:44.685Z,99.99
2016-11-23T05:08:44.694Z,99.99
2016-11-23T05:09:44.718Z,99.99
2016-11-23T05:10:59.646Z,99.99
2016-11-23T05:11:44.751Z,99.99
2016-11-23T05:13:44.788Z,99.99
2016-11-23T05:14:44.809Z,99.99
2016-11-23T05:15:44.857Z,99.99
2016-11-23T05:16:44.850Z,99.99
2016-11-23T05:17:44.870Z,99.99
2016-11-23T05:18:44.888Z,99.99
2016-11-23T05:19:44.906Z,99.99
2016-11-23T05:20:44.923Z,99.99
2016-11-23T05:21:44.939Z,99.99
2016-11-23T05:22:44.962Z,99.99
2016-11-23T05:23:44.983Z,99.99
2016-11-23T05:24:44.995Z,99.99
2016-11-23T05:25:45.012Z,99.99
2016-11-23T05:26:59.944Z,99.99
2016-11-23T05:27:45.055Z,99.99
2016-11-23T05:29:45.087Z,99.99
2016-11-23T05:30:45.104Z,99.99
2016-11-23T05:31:45.435Z,99.99
2016-11-23T05:32:45.144Z,99.99
2016-11-23T05:33:45.164Z,99.99
2016-11-23T05:34:45.175Z,99.99
2016-11-23T05:35:45.200Z,99.99
2016-11-23T05:36:45.219Z,99.99
2016-11-23T05:37:45.236Z,99.99
2016-11-23T05:38:45.253Z,99.99
2016-11-23T05:39:45.271Z,99.99
2016-11-23T05:40:45.290Z,99.99
2016-11-23T05:41:45.308Z,99.99
2016-11-23T05:43:00.236Z,99.99
2016-11-23T05:43:45.342Z,99.99
2016-11-23T05:44:45.359Z,99.99
2016-11-23T05:45:45.383Z,99.99
2016-11-23T05:46:45.398Z,99.99
2016-11-23T05:47:45.417Z,99.99
2016-11-23T05:48:45.431Z,99.99
2016-11-23T05:49:45.455Z,99.99
2016-11-23T05:50:45.471Z,99.99
2016-11-23T05:51:45.491Z,99.99
2016-11-23T05:52:45.510Z,99.99
2016-11-23T05:53:45.524Z,99.99
2016-11-23T05:54:45.547Z,99.99
2016-11-23T05:55:45.563Z,99.99
2016-11-23T05:56:45.580Z,99.99
2016-11-23T05:58:00.511Z,99.99
2016-11-23T05:58:45.619Z,99.99
2016-11-23T05:59:45.633Z,99.99
2016-11-23T06:00:45.653Z,99.99
2016-11-23T06:01:45.673Z,99.99
2016-11-23T06:02:45.688Z,99.99
2016-11-23T06:03:45.710Z,99.99
2016-11-23T06:04:45.725Z,99.99
2016-11-23T06:05:45.746Z,99.99
2016-11-23T06:06:45.761Z,99.99
2016-11-23T06:07:45.783Z,99.99
2016-11-23T06:08:45.796Z,99.99
2016-11-23T06:09:45.816Z,99.99
2016-11-23T06:10:45.834Z,99.99
2016-11-23T06:11:45.856Z,99.99
2016-11-23T06:12:45.870Z,99.99
2016-11-23T06:13:45.890Z,99.99
2016-11-23T06:14:45.904Z,99.99
2016-11-23T06:16:45.948Z,99.99
2016-11-23T06:17:45.961Z,99.99
2016-11-23T06:18:46.004Z,99.99
2016-11-23T06:21:46.039Z,99.99
2016-11-23T06:22:46.056Z,99.99
2016-11-23T06:23:46.075Z,99.99
2016-11-23T06:24:46.090Z,99.99
2016-11-23T06:25:46.108Z,99.99
2016-11-23T06:26:46.125Z,99.99
2016-11-23T06:27:46.138Z,99.99
2016-11-23T06:28:46.161Z,99.99
2016-11-23T06:30:01.089Z,99.99
2016-11-23T06:30:46.197Z,99.99
2016-11-23T06:31:46.211Z,99.99
2016-11-23T06:32:46.236Z,99.99
2016-11-23T06:34:46.271Z,99.99
2016-11-23T06:35:46.292Z,99.99
2016-11-23T06:37:46.323Z,99.99
2016-11-23T06:38:46.345Z,99.99
2016-11-23T06:39:46.357Z,99.99
2016-11-23T06:40:46.377Z,99.99
2016-11-23T06:41:46.393Z,99.99
2016-11-23T06:42:46.419Z,99.99
2016-11-23T06:43:46.433Z,99.99
2016-11-23T06:44:46.447Z,99.99
2016-11-23T06:46:01.379Z,99.99
2016-11-23T06:46:46.483Z,99.99
2016-11-23T06:47:46.507Z,99.99
2016-11-23T06:48:46.591Z,99.99
2016-11-23T06:49:46.540Z,99.99
2016-11-23T06:50:46.557Z,99.99
2016-11-23T06:51:46.594Z,99.99
2016-11-23T06:52:46.597Z,99.99
2016-11-23T06:53:46.610Z,99.99
2016-11-23T06:54:46.635Z,99.99
2016-11-23T06:55:46.659Z,99.99
2016-11-23T06:56:46.669Z,99.99
2016-11-23T06:57:46.689Z,99.99
2016-11-23T06:58:46.702Z,99.99
2016-11-23T06:59:46.728Z,99.99
2016-11-23T07:00:46.737Z,99.99
2016-11-23T07:02:01.669Z,99.99
2016-11-23T07:02:46.777Z,99.99
2016-11-23T07:03:46.820Z,99.99
2016-11-23T07:04:46.811Z,99.99
2016-11-23T07:05:46.832Z,99.99
2016-11-23T07:06:46.850Z,99.99
2016-11-23T07:08:46.888Z,99.99
2016-11-23T07:09:46.906Z,99.99
2016-11-23T07:10:46.920Z,99.99
2016-11-23T07:11:46.940Z,99.99
2016-11-23T07:12:46.959Z,99.99
2016-11-23T07:13:46.978Z,99.99
2016-11-23T07:14:46.999Z,99.99
2016-11-23T07:15:47.009Z,99.99
2016-11-23T07:16:47.033Z,99.99
2016-11-23T07:18:01.960Z,99.99
2016-11-23T07:18:47.067Z,99.99
2016-11-23T07:19:47.093Z,99.99
2016-11-23T07:20:47.101Z,99.99
2016-11-23T07:21:47.125Z,99.99
2016-11-23T07:22:47.148Z,99.99
2016-11-23T07:23:47.156Z,99.99
2016-11-23T07:25:47.197Z,99.99
2016-11-23T07:26:47.216Z,99.99
2016-11-23T07:27:47.232Z,99.99
2016-11-23T07:28:47.250Z,99.99
2016-11-23T07:29:47.268Z,99.99
2016-11-23T07:30:47.289Z,99.99
2016-11-23T07:31:47.304Z,99.99
2016-11-23T07:33:02.239Z,99.99
2016-11-23T07:33:47.345Z,99.99
2016-11-23T07:34:47.673Z,99.99
2016-11-23T07:35:47.383Z,99.99
2016-11-23T07:36:47.402Z,99.99
2016-11-23T07:37:47.426Z,99.99
2016-11-23T07:38:47.442Z,99.99
2016-11-23T07:40:47.474Z,99.99
2016-11-23T07:41:47.495Z,99.99
2016-11-23T07:42:47.543Z,99.99
2016-11-23T07:43:47.533Z,99.99
2016-11-23T07:44:47.549Z,99.99
2016-11-23T07:45:47.574Z,99.99
2016-11-23T07:46:47.590Z,99.99
2016-11-23T07:47:47.604Z,99.99
2016-11-23T07:48:47.631Z,99.99
2016-11-23T07:49:47.641Z,99.99
2016-11-23T07:50:47.965Z,99.99
2016-11-23T07:51:47.685Z,99.99
2016-11-23T07:52:47.699Z,99.99
2016-11-23T07:53:47.718Z,99.99
2016-11-23T07:54:47.744Z,99.99
2016-11-23T07:55:47.761Z,99.99
2016-11-23T07:56:47.779Z,99.99
2016-11-23T07:57:47.808Z,99.99
2016-11-23T07:58:47.850Z,99.99
2016-11-23T07:59:47.838Z,99.99
2016-11-23T08:00:47.853Z,99.99
2016-11-23T08:01:47.875Z,99.99
2016-11-23T08:02:47.896Z,99.99
2016-11-23T08:03:47.908Z,99.99
2016-11-23T08:05:02.842Z,99.99
2016-11-23T08:06:47.967Z,99.99
2016-11-23T08:07:47.993Z,99.99
2016-11-23T08:08:48.009Z,99.99
2016-11-23T08:09:48.026Z,99.99
2016-11-23T08:10:48.047Z,99.99
2016-11-23T08:11:48.062Z,99.99
2016-11-23T08:12:48.082Z,99.99
2016-11-23T08:13:48.109Z,99.99
2016-11-23T08:14:48.125Z,99.99
2016-11-23T08:15:48.145Z,99.99
2016-11-23T08:16:48.163Z,99.99
2016-11-23T08:17:48.181Z,99.99
2016-11-23T08:18:48.202Z,99.99
2016-11-23T08:19:48.216Z,99.99
2016-11-23T08:21:03.152Z,99.99
2016-11-23T08:21:48.256Z,99.99
2016-11-23T08:22:48.277Z,99.99
2016-11-23T08:24:48.318Z,99.99
2016-11-23T08:25:48.337Z,99.99
2016-11-23T08:27:48.377Z,99.99
2016-11-23T08:28:48.397Z,99.99
2016-11-23T08:29:48.421Z,99.99
2016-11-23T08:30:48.439Z,99.99
2016-11-23T08:31:48.458Z,99.99
2016-11-23T08:32:48.482Z,99.99
2016-11-23T08:33:48.496Z,99.99
2016-11-23T08:34:48.514Z,99.99
2016-11-23T08:35:48.531Z,99.99
2016-11-23T08:37:03.465Z,99.99
2016-11-23T08:38:48.591Z,99.99
2016-11-23T08:39:48.618Z,99.99
2016-11-23T08:40:48.630Z,99.99
2016-11-23T08:41:48.647Z,99.99
2016-11-23T08:42:48.672Z,99.99
2016-11-23T08:43:48.689Z,99.99
2016-11-23T08:44:48.718Z,99.99
2016-11-23T08:45:48.734Z,99.99
2016-11-23T08:46:48.749Z,99.99
2016-11-23T08:47:48.773Z,99.99
2016-11-23T08:48:48.789Z,99.99
2016-11-23T08:49:48.810Z,99.99
2016-11-23T08:50:48.835Z,99.99
2016-11-23T08:51:48.857Z,99.99
2016-11-23T08:53:03.785Z,99.99
2016-11-23T08:53:48.889Z,99.99
2016-11-23T08:55:48.934Z,99.99
2016-11-23T08:56:48.952Z,99.99
2016-11-23T08:57:48.973Z,99.99
2016-11-23T08:58:48.991Z,99.99
2016-11-23T08:59:49.007Z,99.99
2016-11-23T09:00:49.035Z,99.99
2016-11-23T09:01:49.049Z,99.99
2016-11-23T09:02:49.070Z,99.99
2016-11-23T09:03:49.089Z,99.99
2016-11-23T09:04:49.110Z,99.99
2016-11-23T09:05:49.131Z,99.99
2016-11-23T09:06:49.149Z,99.99
2016-11-23T09:08:04.084Z,99.99
2016-11-23T09:09:49.212Z,99.99
2016-11-23T09:10:49.237Z,99.99
2016-11-23T09:11:49.251Z,99.99
2016-11-23T09:12:49.270Z,99.99
2016-11-23T09:13:49.289Z,99.99
2016-11-23T09:14:49.314Z,99.99
2016-11-23T09:15:49.333Z,99.99
2016-11-23T09:16:49.352Z,99.99
2016-11-23T09:17:49.372Z,99.99
2016-11-23T09:18:49.395Z,99.99
2016-11-23T09:19:49.411Z,99.99
2016-11-23T09:20:49.432Z,99.99
2016-11-23T09:21:49.454Z,99.99
2016-11-23T09:22:49.475Z,99.99
2016-11-23T09:23:49.491Z,99.99
2016-11-23T09:24:49.509Z,99.99
2016-11-23T09:25:49.530Z,99.99
2016-11-23T09:26:49.558Z,99.99
2016-11-23T09:29:49.617Z,99.99
2016-11-23T09:30:49.635Z,99.99
2016-11-23T09:31:49.660Z,99.99
2016-11-23T09:32:49.676Z,99.99
2016-11-23T09:33:49.695Z,99.99
2016-11-23T09:34:49.714Z,99.99
2016-11-23T09:35:49.737Z,99.99
2016-11-23T09:36:49.757Z,99.99
2016-11-23T09:37:49.777Z,99.99
2016-11-23T09:38:49.797Z,99.99
2016-11-23T09:40:04.728Z,99.99
2016-11-23T09:40:49.838Z,99.99
2016-11-23T09:41:49.857Z,99.99
2016-11-23T09:42:49.873Z,99.99
2016-11-23T09:43:49.900Z,99.99
2016-11-23T09:44:49.920Z,99.99
2016-11-23T09:45:49.942Z,99.99
2016-11-23T09:46:49.959Z,99.99
2016-11-23T09:47:49.979Z,99.99
2016-11-23T09:48:50.003Z,99.99
2016-11-23T09:49:50.023Z,99.99
2016-11-23T09:50:50.039Z,99.99
2016-11-23T09:51:50.062Z,99.99
2016-11-23T09:52:50.085Z,99.99
2016-11-23T09:53:50.101Z,99.99
2016-11-23T09:54:50.122Z,99.99
2016-11-23T09:56:05.054Z,99.99
2016-11-23T09:56:50.167Z,99.99
2016-11-23T09:57:50.182Z,99.99
2016-11-23T09:58:50.209Z,99.99
2016-11-23T09:59:50.223Z,99.99
2016-11-23T10:00:50.242Z,99.99
2016-11-23T10:01:50.267Z,99.99
2016-11-23T10:02:50.288Z,99.99
2016-11-23T10:03:50.310Z,99.99
2016-11-23T10:04:50.331Z,99.99
2016-11-23T10:05:50.351Z,99.99
2016-11-23T10:06:50.372Z,99.99
2016-11-23T10:07:50.389Z,99.99
2016-11-23T10:08:50.412Z,99.99
2016-11-23T10:09:50.436Z,99.99
2016-11-23T10:10:50.451Z,99.99
2016-11-23T10:12:05.385Z,99.99
2016-11-23T10:12:50.492Z,99.99
2016-11-23T10:13:50.515Z,99.99
2016-11-23T10:14:50.537Z,99.99
2016-11-23T10:15:50.564Z,99.99
2016-11-23T10:16:50.581Z,99.99
2016-11-23T10:19:50.641Z,99.99
2016-11-23T10:20:50.668Z,99.99
2016-11-23T10:21:50.689Z,99.99
2016-11-23T10:22:50.708Z,99.99
2016-11-23T10:23:50.731Z,99.99
2016-11-23T10:24:50.752Z,99.99
2016-11-23T10:25:50.772Z,99.99
2016-11-23T10:26:50.791Z,99.99
2016-11-23T10:28:05.726Z,99.99
2016-11-23T10:30:50.875Z,99.99
2016-11-23T10:31:50.903Z,99.99
2016-11-23T10:32:50.922Z,99.99
2016-11-23T10:33:50.942Z,99.99
2016-11-23T10:34:50.968Z,99.99
2016-11-23T10:35:50.992Z,99.99
2016-11-23T10:36:51.006Z,99.99
2016-11-23T10:37:51.028Z,99.99
2016-11-23T10:38:51.046Z,99.99
2016-11-23T10:39:51.074Z,99.99
2016-11-23T10:40:51.094Z,99.99
2016-11-23T10:41:51.114Z,99.99
2016-11-23T10:43:06.051Z,99.99
2016-11-23T10:43:51.161Z,99.99
2016-11-23T10:45:51.204Z,99.99
2016-11-23T10:46:51.231Z,99.99
2016-11-23T10:47:51.254Z,99.99
2016-11-23T10:48:51.271Z,99.99
2016-11-23T10:49:51.293Z,99.99
2016-11-23T10:50:51.308Z,99.99
2016-11-23T10:51:51.335Z,99.99
2016-11-23T10:52:51.352Z,99.99
2016-11-23T10:53:51.381Z,99.99
2016-11-23T10:54:51.397Z,99.99
2016-11-23T10:55:51.419Z,99.99
2016-11-23T10:56:51.445Z,99.99
2016-11-23T10:57:51.465Z,99.99
2016-11-23T11:00:51.525Z,99.99
2016-11-23T11:01:51.558Z,99.99
2016-11-23T11:02:51.568Z,99.99
2016-11-23T11:03:51.590Z,99.99
2016-11-23T11:04:51.640Z,99.99
2016-11-23T11:05:51.635Z,99.99
2016-11-23T11:06:51.657Z,99.99
2016-11-23T11:07:51.678Z,99.99
2016-11-23T11:08:51.696Z,99.99
2016-11-23T11:09:51.726Z,99.99
2016-11-23T11:10:51.742Z,99.99
2016-11-23T11:11:51.764Z,99.99
2016-11-23T11:13:51.805Z,99.99
2016-11-23T11:15:06.740Z,99.99
2016-11-23T11:15:51.846Z,99.99
2016-11-23T11:16:51.877Z,99.99
2016-11-23T11:17:51.891Z,99.99
2016-11-23T11:18:51.911Z,99.99
2016-11-23T11:19:51.932Z,99.99
2016-11-23T11:20:51.962Z,99.99
2016-11-23T11:21:51.984Z,99.99
2016-11-23T11:22:52.001Z,99.99
2016-11-23T11:23:52.020Z,99.99
2016-11-23T11:24:52.042Z,99.99
2016-11-23T11:25:52.068Z,99.99
2016-11-23T11:26:52.084Z,99.99
2016-11-23T11:27:52.117Z,99.99
2016-11-23T11:28:52.130Z,99.99
2016-11-23T11:29:52.148Z,99.99
2016-11-23T11:31:07.084Z,99.99
2016-11-23T11:31:52.193Z,99.99
2016-11-23T11:32:52.213Z,99.99
2016-11-23T11:33:52.243Z,99.99
2016-11-23T11:34:52.261Z,99.99
2016-11-23T11:35:52.283Z,99.99
2016-11-23T11:36:52.304Z,99.99
2016-11-23T11:37:52.321Z,99.99
2016-11-23T11:38:52.350Z,99.99
2016-11-23T11:39:52.371Z,99.99
2016-11-23T11:40:52.393Z,99.99
2016-11-23T11:41:52.407Z,99.99
2016-11-23T11:42:52.431Z,99.99
2016-11-23T11:43:52.455Z,99.99
2016-11-23T11:44:52.480Z,99.99
2016-11-23T11:45:52.497Z,99.99
2016-11-23T11:47:07.433Z,99.99
2016-11-23T11:47:52.541Z,99.99
2016-11-23T11:49:52.584Z,99.99
2016-11-23T11:50:52.608Z,99.99
2016-11-23T11:51:52.630Z,99.99
2016-11-23T11:53:52.671Z,99.99
2016-11-23T11:54:52.698Z,99.99
2016-11-23T11:55:52.719Z,99.99
2016-11-23T11:56:52.734Z,99.99
2016-11-23T11:57:52.755Z,99.99
2016-11-23T11:58:52.782Z,99.99
2016-11-23T11:59:53.100Z,99.99
2016-11-23T12:00:52.824Z,99.99
2016-11-23T12:01:52.846Z,99.99
2016-11-23T12:03:07.831Z,99.99
2016-11-23T12:03:52.889Z,99.99
2016-11-23T12:04:52.909Z,99.99
2016-11-23T12:05:52.934Z,99.99
2016-11-23T12:06:52.958Z,99.99
2016-11-23T12:07:52.979Z,99.99
2016-11-23T12:08:53.001Z,99.99
2016-11-23T12:09:53.324Z,99.99
2016-11-23T12:10:53.043Z,99.99
2016-11-23T12:11:53.064Z,99.99
2016-11-23T12:12:53.085Z,99.99
2016-11-23T12:13:53.104Z,99.99
2016-11-23T12:14:53.127Z,99.99
2016-11-23T12:15:53.153Z,99.99
2016-11-23T12:16:53.176Z,99.99
2016-11-23T12:18:08.108Z,99.99
2016-11-23T12:18:53.216Z,99.99
2016-11-23T12:20:53.264Z,99.99
2016-11-23T12:21:53.282Z,99.99
2016-11-23T12:22:53.310Z,99.99
2016-11-23T12:24:53.353Z,99.99
2016-11-23T12:25:53.369Z,99.99
2016-11-23T12:26:53.399Z,99.99
2016-11-23T12:27:53.418Z,99.99
2016-11-23T12:28:53.435Z,99.99
2016-11-23T12:29:53.461Z,99.99
2016-11-23T12:30:53.481Z,99.99
2016-11-23T12:31:53.501Z,99.99
2016-11-23T12:32:53.522Z,99.99
2016-11-23T12:33:53.551Z,99.99
2016-11-23T12:35:53.589Z,99.99
2016-11-23T12:36:53.617Z,99.99
2016-11-23T12:37:53.635Z,99.99
2016-11-23T12:38:53.658Z,99.99
2016-11-23T12:39:53.681Z,99.99
2016-11-23T12:40:53.704Z,99.99
2016-11-23T12:41:53.721Z,99.99
2016-11-23T12:42:53.744Z,99.99
2016-11-23T12:43:53.768Z,99.99
2016-11-23T12:44:53.795Z,99.99
2016-11-23T12:45:53.812Z,99.99
2016-11-23T12:46:53.830Z,99.99
2016-11-23T12:47:53.853Z,99.99
2016-11-23T12:48:53.886Z,99.99
2016-11-23T12:50:08.808Z,99.99
2016-11-23T12:50:53.919Z,99.99
2016-11-23T12:53:53.988Z,99.99
2016-11-23T12:56:54.053Z,99.99
2016-11-23T12:57:54.070Z,99.99
2016-11-23T12:58:54.093Z,99.99
2016-11-23T12:59:54.119Z,99.99
2016-11-23T13:00:54.143Z,99.85
2016-11-23T13:01:54.212Z,99.18
2016-11-23T13:02:54.178Z,99.08
2016-11-23T13:03:54.199Z,98.51
2016-11-23T13:06:09.162Z,98.9
2016-11-23T13:06:54.268Z,98.9
2016-11-23T13:07:54.290Z,98.99
2016-11-23T13:08:54.317Z,98.9
2016-11-23T13:09:54.335Z,98.8
2016-11-23T13:10:54.359Z,98.61
2016-11-23T13:11:54.381Z,99.08
2016-11-23T13:12:54.408Z,98.51
2016-11-23T13:13:54.424Z,98.7
2016-11-23T13:14:54.442Z,98.61
2016-11-23T13:15:54.466Z,98.13
2016-11-23T13:16:54.497Z,98.42
2016-11-23T13:17:54.514Z,98.13
2016-11-23T13:18:54.535Z,98.32
2016-11-23T13:19:54.555Z,98.22
2016-11-23T13:20:54.578Z,98.51
2016-11-23T13:22:09.514Z,98.46
2016-11-23T13:22:54.625Z,98.42
2016-11-23T13:23:54.645Z,98.51
2016-11-23T13:25:54.692Z,97.94
2016-11-23T13:26:54.714Z,98.51
2016-11-23T13:27:54.736Z,98.42
2016-11-23T13:29:54.774Z,98.9
2016-11-23T13:30:54.800Z,98.7
2016-11-23T13:31:54.822Z,98.42
2016-11-23T13:32:54.843Z,98.51
2016-11-23T13:33:54.866Z,98.61
2016-11-23T13:34:54.890Z,98.13
2016-11-23T13:35:54.914Z,98.61
2016-11-23T13:36:54.936Z,98.42
2016-11-23T13:38:09.869Z,98.61
2016-11-23T13:39:54.997Z,98.7
2016-11-23T13:40:55.333Z,99.08
2016-11-23T13:41:55.047Z,98.85
2016-11-23T13:43:55.091Z,99.99
2016-11-23T13:44:55.112Z,99.99
2016-11-23T13:45:55.131Z,99.99
2016-11-23T13:46:55.151Z,99.99
2016-11-23T13:47:55.174Z,99.99
2016-11-23T13:48:55.197Z,99.99
2016-11-23T13:49:55.218Z,99.99
2016-11-23T13:50:55.246Z,99.99
2016-11-23T13:51:55.267Z,99.99